Time;durP1;ratioP1;P1;durP2;ratioP2;P2;SDS_P1;SDS_P2;PMS_P1;PMS_P2;Temp;Humidity;BMP_temperature;BMP_pressure;BME280_temperature;BME280_humidity;BME280_pressure;Samples;Min_cycle;Max_cycle;Signal;HPM_P1;HPM_P2
2021/01/14 00:01:07;;;;;;;31.37;12.97;;;-0.60;99.90;;;;;;4407311;28;661760;-68
2021/01/14 00:03:54;;;;;;;19.02;6.90;;;-0.60;99.90;;;;;;4395991;28;660822;-64
2021/01/14 00:06:41;;;;;;;14.48;6.38;;;-0.50;99.90;;;;;;4413109;28;659378;-68
2021/01/14 00:09:28;;;;;;;26.50;11.93;;;-0.40;99.90;;;;;;4415457;28;658873;-68
2021/01/14 00:12:16;;;;;;;26.17;12.50;;;-0.40;99.90;;;;;;4391992;28;660942;-68
2021/01/14 00:15:03;;;;;;;30.97;13.50;;;-0.50;99.90;;;;;;4408844;28;659277;-69
2021/01/14 00:17:50;;;;;;;37.17;14.23;;;-0.60;99.90;;;;;;4388355;28;660931;-68
2021/01/14 00:20:37;;;;;;;33.03;13.63;;;-0.50;99.90;;;;;;4405721;28;660044;-69
2021/01/14 00:23:24;;;;;;;42.40;15.30;;;-0.50;99.90;;;;;;4394323;28;660217;-68
2021/01/14 00:26:13;;;;;;;32.13;13.77;;;-0.50;99.90;;;;;;4396637;28;661550;-68
2021/01/14 00:29:00;;;;;;;29.67;13.53;;;-0.40;99.90;;;;;;4395952;28;660376;-68
2021/01/14 00:31:47;;;;;;;9.63;5.10;;;-0.40;99.90;;;;;;4407755;28;661023;-68
2021/01/14 00:34:34;;;;;;;30.42;12.38;;;-0.40;99.90;;;;;;4399286;28;657811;-65
2021/01/14 00:40:27;;;;;;;18.07;7.40;;;-0.30;99.90;;;;;;4363218;28;658800;-68
2021/01/14 00:43:15;;;;;;;30.48;12.80;;;-0.40;99.90;;;;;;4391815;28;658460;-64
2021/01/14 00:46:02;;;;;;;9.53;3.67;;;-0.50;99.90;;;;;;4413817;28;660012;-67
2021/01/14 00:48:49;;;;;;;26.77;12.77;;;-0.50;99.90;;;;;;4392167;28;657662;-67
2021/01/14 00:51:36;;;;;;;27.47;12.93;;;-0.70;99.90;;;;;;4416729;28;661259;-68
2021/01/14 00:54:24;;;;;;;14.77;7.57;;;-0.50;99.90;;;;;;4396744;28;659687;-65
2021/01/14 00:57:11;;;;;;;18.50;6.25;;;-0.60;99.90;;;;;;4412322;28;658531;-68
2021/01/14 00:59:58;;;;;;;9.70;3.63;;;-0.50;99.90;;;;;;4414716;28;659283;-68
2021/01/14 01:02:46;;;;;;;23.50;10.43;;;-0.60;99.90;;;;;;4394015;28;658984;-68
2021/01/14 01:05:33;;;;;;;9.57;4.70;;;-0.50;99.90;;;;;;4414167;28;659552;-68
2021/01/14 01:08:20;;;;;;;18.88;8.02;;;-0.60;99.90;;;;;;4397649;28;658519;-68
2021/01/14 01:11:07;;;;;;;17.10;7.30;;;-0.40;99.90;;;;;;4409898;28;659436;-68
2021/01/14 01:13:54;;;;;;;24.77;10.53;;;-0.50;99.90;;;;;;4396042;28;658982;-67
2021/01/14 01:16:42;;;;;;;30.93;11.73;;;-0.50;99.90;;;;;;4413113;28;660683;-68
2021/01/14 01:19:29;;;;;;;12.63;5.60;;;-0.60;99.90;;;;;;4396298;28;659705;-64
2021/01/14 01:22:19;;;;;;;22.10;9.43;;;-0.50;99.90;;;;;;4402217;28;658863;-68
2021/01/14 01:25:07;;;;;;;17.87;7.47;;;-0.60;99.90;;;;;;4389067;28;660614;-68
2021/01/14 01:27:54;;;;;;;21.93;8.93;;;-0.60;99.90;;;;;;4395003;28;658597;-67
2021/01/14 01:30:41;;;;;;;10.47;4.10;;;-0.50;99.90;;;;;;4409775;28;660650;-68
2021/01/14 01:33:29;;;;;;;13.57;6.43;;;-0.40;99.90;;;;;;4414136;28;659869;-68
2021/01/14 01:36:16;;;;;;;17.90;6.73;;;-0.50;99.90;;;;;;4396036;28;659722;-68
2021/01/14 01:39:03;;;;;;;28.00;11.07;;;-0.40;99.90;;;;;;4407109;28;658991;-68
2021/01/14 01:41:50;;;;;;;22.07;10.53;;;-0.50;99.90;;;;;;4394531;28;661027;-68
2021/01/14 01:44:37;;;;;;;25.47;10.97;;;-0.50;99.90;;;;;;4406114;28;660567;-68
2021/01/14 01:47:32;;;;;;;21.07;9.07;;;-0.50;99.90;;;;;;4394359;28;659712;-67
2021/01/14 01:50:20;;;;;;;13.43;4.57;;;-0.50;99.90;;;;;;4386452;28;659163;-68
2021/01/14 01:53:07;;;;;;;27.13;11.03;;;-0.50;99.90;;;;;;4393832;28;659393;-68
2021/01/14 01:55:54;;;;;;;16.50;6.50;;;-0.50;99.90;;;;;;4388136;28;660242;-68
2021/01/14 01:58:41;;;;;;;22.60;7.83;;;-0.70;99.90;;;;;;4418224;28;658333;-68
2021/01/14 02:01:29;;;;;;;18.10;7.37;;;-0.60;99.90;;;;;;4406772;28;658554;-65
2021/01/14 02:04:16;;;;;;;15.17;5.63;;;-0.60;99.90;;;;;;4412486;28;658534;-68
2021/01/14 02:07:05;;;;;;;22.93;10.87;;;-0.60;99.90;;;;;;4414476;28;658741;-68
2021/01/14 02:09:53;;;;;;;17.67;6.50;;;-0.80;99.90;;;;;;4370693;28;659846;-68
2021/01/14 02:12:42;;;;;;;10.40;5.93;;;-0.70;99.90;;;;;;4390053;28;660791;-68
2021/01/14 02:15:29;;;;;;;12.63;6.63;;;-0.70;99.90;;;;;;4387953;28;658688;-66
2021/01/14 02:18:16;;;;;;;8.63;2.63;;;-0.70;99.90;;;;;;4406009;28;659716;-68
2021/01/14 02:21:05;;;;;;;4.00;2.17;;;-0.70;99.90;;;;;;4400470;28;658534;-65
2021/01/14 02:23:58;;;;;;;27.42;10.77;;;-0.60;99.90;;;;;;4403167;28;658272;-68
2021/01/14 02:26:45;;;;;;;12.70;6.50;;;-0.60;99.90;;;;;;4362710;28;661537;-68
2021/01/14 02:29:32;;;;;;;20.83;9.23;;;-0.70;99.90;;;;;;4405357;28;658754;-68
2021/01/14 02:32:19;;;;;;;19.93;10.00;;;-0.60;99.90;;;;;;4395227;28;658464;-67
2021/01/14 02:35:07;;;;;;;19.97;10.47;;;-0.60;99.90;;;;;;4413701;28;660714;-68
2021/01/14 02:37:54;;;;;;;19.73;8.87;;;-0.80;99.90;;;;;;4393266;28;659780;-68
2021/01/14 02:40:41;;;;;;;20.37;9.60;;;-0.90;99.90;;;;;;4413987;28;659400;-68
2021/01/14 02:43:29;;;;;;;18.40;10.73;;;-0.80;99.90;;;;;;4413034;28;659112;-68
2021/01/14 02:46:16;;;;;;;25.10;9.50;;;-0.70;99.90;;;;;;4382141;28;661376;-68
2021/01/14 02:49:06;;;;;;;20.77;10.17;;;-0.80;99.90;;;;;;4409522;28;658727;-66
2021/01/14 02:51:56;;;;;;;20.10;9.77;;;-0.60;99.90;;;;;;4404659;28;659828;-69
2021/01/14 02:54:44;;;;;;;20.83;10.00;;;-0.50;99.90;;;;;;4382072;28;658769;-65
2021/01/14 02:57:31;;;;;;;6.60;2.33;;;-0.80;99.90;;;;;;4410226;28;660418;-68
2021/01/14 03:00:19;;;;;;;16.67;7.20;;;-0.70;99.90;;;;;;4413504;28;658295;-68
2021/01/14 03:03:06;;;;;;;22.27;9.17;;;-0.60;99.90;;;;;;4382553;28;660553;-68
2021/01/14 03:05:53;;;;;;;19.73;10.20;;;-0.60;99.90;;;;;;4408075;28;658696;-68
2021/01/14 03:08:40;;;;;;;24.13;9.90;;;-0.80;99.90;;;;;;4392409;28;659703;-69
2021/01/14 03:11:27;;;;;;;20.67;8.52;;;-0.80;99.90;;;;;;4408571;28;659842;-68
2021/01/14 03:14:14;;;;;;;18.67;8.50;;;-0.70;99.90;;;;;;4400267;28;659786;-67
2021/01/14 03:17:02;;;;;;;26.17;10.93;;;-0.50;99.90;;;;;;4418071;28;659352;-69
2021/01/14 03:19:49;;;;;;;23.33;9.77;;;-0.60;99.90;;;;;;4399068;28;661054;-66
2021/01/14 03:22:39;;;;;;;15.70;6.70;;;-0.50;99.90;;;;;;4414070;28;659858;-68
2021/01/14 03:25:26;;;;;;;24.53;9.93;;;-0.60;99.90;;;;;;4396167;28;659875;-68
2021/01/14 03:28:14;;;;;;;21.00;8.17;;;-0.70;99.90;;;;;;4408178;28;658558;-64
2021/01/14 03:31:01;;;;;;;23.27;10.90;;;-0.50;99.90;;;;;;4415411;28;658926;-68
2021/01/14 03:33:49;;;;;;;20.63;9.60;;;-0.60;99.90;;;;;;4418210;28;659890;-69
2021/01/14 03:36:56;;;;;;;14.67;7.07;;;-0.80;99.90;;;;;;4396440;28;660206;-68
2021/01/14 03:39:44;;;;;;;21.20;9.25;;;-0.80;99.90;;;;;;4387494;28;659178;-65
2021/01/14 03:42:31;;;;;;;22.07;9.43;;;-0.80;99.90;;;;;;4418401;28;658844;-68
2021/01/14 03:45:18;;;;;;;17.90;8.38;;;-0.60;99.90;;;;;;4418661;28;659510;-69
2021/01/14 03:48:06;;;;;;;18.90;9.27;;;-0.60;99.90;;;;;;4400116;28;658606;-68
2021/01/14 03:50:54;;;;;;;16.07;7.87;;;-0.50;99.90;;;;;;4412453;28;658800;-65
2021/01/14 03:53:41;;;;;;;17.47;7.23;;;-0.60;99.90;;;;;;4414832;28;659949;-68
2021/01/14 03:56:29;;;;;;;16.42;8.93;;;-0.50;99.90;;;;;;4403598;28;658506;-66
2021/01/14 03:59:16;;;;;;;20.17;9.40;;;-0.60;99.90;;;;;;4415431;28;659630;-68
2021/01/14 04:02:06;;;;;;;20.87;8.13;;;-0.80;99.90;;;;;;4419090;28;659310;-68
2021/01/14 04:04:53;;;;;;;27.23;11.77;;;-0.70;99.90;;;;;;4391028;28;658434;-68
2021/01/14 04:07:42;;;;;;;24.73;12.47;;;-0.70;99.90;;;;;;4394541;28;659589;-67
2021/01/14 04:10:29;;;;;;;27.00;12.27;;;-0.80;99.90;;;;;;4385680;28;659728;-65
2021/01/14 04:13:16;;;;;;;24.25;11.77;;;-0.90;99.90;;;;;;4420872;28;659680;-68
2021/01/14 04:16:03;;;;;;;20.07;10.67;;;-0.80;99.90;;;;;;4416945;28;659283;-68
2021/01/14 04:18:50;;;;;;;27.80;13.37;;;-0.80;99.90;;;;;;4394625;28;660307;-68
2021/01/14 04:21:37;;;;;;;23.30;11.17;;;-1.00;99.90;;;;;;4417959;28;660457;-68
2021/01/14 04:24:25;;;;;;;20.60;11.20;;;-1.10;99.90;;;;;;4388191;28;660521;-66
2021/01/14 04:27:12;;;;;;;24.52;12.00;;;-1.10;99.90;;;;;;4412925;28;661437;-68
2021/01/14 04:30:00;;;;;;;18.60;9.45;;;-1.00;99.90;;;;;;4389718;28;659742;-65
2021/01/14 04:32:47;;;;;;;16.13;7.07;;;-0.80;99.90;;;;;;4415855;28;658715;-69
2021/01/14 04:35:34;;;;;;;15.63;7.23;;;-0.70;99.90;;;;;;4397323;28;658655;-67
2021/01/14 04:38:22;;;;;;;22.23;9.77;;;-0.50;99.90;;;;;;4415971;28;660161;-68
2021/01/14 04:41:10;;;;;;;21.42;9.63;;;-0.60;99.90;;;;;;4390885;28;658594;-64
2021/01/14 04:43:57;;;;;;;19.77;9.83;;;-0.70;99.90;;;;;;4416115;28;660113;-68
2021/01/14 04:46:48;;;;;;;21.70;10.07;;;-0.60;99.90;;;;;;4391521;28;658455;-65
2021/01/14 04:49:38;;;;;;;25.17;10.37;;;-0.80;99.90;;;;;;4383423;28;660916;-68
2021/01/14 04:52:25;;;;;;;20.10;9.43;;;-0.90;99.90;;;;;;4391203;28;661147;-68
2021/01/14 04:55:14;;;;;;;24.17;11.10;;;-0.80;99.90;;;;;;4414317;28;659552;-68
2021/01/14 04:58:02;;;;;;;28.03;12.30;;;-0.90;99.90;;;;;;4390904;28;661040;-69
2021/01/14 05:00:49;;;;;;;23.87;10.40;;;-0.90;99.90;;;;;;4395106;28;660217;-65
2021/01/14 05:03:38;;;;;;;23.50;10.73;;;-1.00;99.90;;;;;;4413705;28;660092;-69
2021/01/14 05:06:25;;;;;;;22.97;10.53;;;-1.00;99.90;;;;;;4391253;28;660851;-69
2021/01/14 05:09:13;;;;;;;26.37;11.77;;;-0.90;99.90;;;;;;4406162;28;659883;-68
2021/01/14 05:12:00;;;;;;;22.67;11.93;;;-0.90;99.90;;;;;;4391730;28;659626;-68
2021/01/14 05:14:48;;;;;;;30.47;12.00;;;-1.10;99.90;;;;;;4408220;28;659968;-69
2021/01/14 05:17:35;;;;;;;27.60;12.60;;;-1.10;99.90;;;;;;4387780;28;660625;-68
2021/01/14 05:20:22;;;;;;;28.10;12.68;;;-1.10;99.90;;;;;;4407777;28;661191;-69
2021/01/14 05:23:09;;;;;;;25.30;9.67;;;-1.10;99.90;;;;;;4394539;28;659903;-67
2021/01/14 05:25:56;;;;;;;28.03;12.30;;;-1.10;99.90;;;;;;4415222;28;659023;-69
2021/01/14 05:28:43;;;;;;;26.30;12.23;;;-0.90;99.90;;;;;;4411727;28;660352;-68
2021/01/14 05:31:31;;;;;;;25.97;12.57;;;-0.90;99.90;;;;;;4391687;28;659708;-68
2021/01/14 05:34:18;;;;;;;25.23;11.70;;;-1.00;99.90;;;;;;4406360;28;659740;-68
2021/01/14 05:37:05;;;;;;;23.03;9.53;;;-1.10;99.90;;;;;;4390783;28;661261;-68
2021/01/14 05:39:52;;;;;;;21.13;11.07;;;-1.10;99.90;;;;;;4407679;28;659504;-68
2021/01/14 05:42:39;;;;;;;25.17;12.50;;;-0.80;99.90;;;;;;4395087;28;659508;-68
2021/01/14 05:45:27;;;;;;;30.33;13.03;;;-1.00;99.90;;;;;;4415984;28;661159;-69
2021/01/14 05:48:16;;;;;;;24.53;11.50;;;-1.10;99.90;;;;;;4394460;28;659737;-67
2021/01/14 05:51:03;;;;;;;24.53;11.50;;;-1.10;99.90;;;;;;4413300;28;659421;-68
2021/01/14 05:53:57;;;;;;;27.42;11.57;;;-0.90;99.90;;;;;;4394645;28;660028;-67
2021/01/14 05:56:46;;;;;;;23.90;11.63;;;-1.00;99.90;;;;;;4365288;28;660010;-67
2021/01/14 05:59:34;;;;;;;28.77;11.40;;;-1.00;99.90;;;;;;4406422;28;659728;-66
2021/01/14 06:02:28;;;;;;;29.05;11.65;;;-1.10;99.90;;;;;;4410001;28;660460;-68
2021/01/14 06:05:28;;;;;;;26.02;11.35;;;-1.00;99.90;;;;;;4367321;28;661184;-68
2021/01/14 06:08:21;;;;;;;26.67;11.93;;;-1.10;99.90;;;;;;4354602;28;660729;-68
2021/01/14 06:11:18;;;;;;;32.43;11.53;;;-1.00;99.90;;;;;;4374474;28;659935;-66
2021/01/14 06:14:06;;;;;;;21.17;10.83;;;-1.00;99.90;;;;;;4360385;28;660668;-68
2021/01/14 06:16:53;;;;;;;22.80;10.95;;;-0.90;99.90;;;;;;4412893;28;660525;-68
2021/01/14 06:19:40;;;;;;;26.50;11.23;;;-1.00;99.90;;;;;;4387486;28;659807;-68
2021/01/14 06:22:30;;;;;;;23.83;10.77;;;-1.10;99.90;;;;;;4413087;28;660975;-68
2021/01/14 06:25:17;;;;;;;18.17;9.37;;;-0.90;99.90;;;;;;4380771;28;660079;-68
2021/01/14 06:28:05;;;;;;;22.10;10.20;;;-1.00;99.90;;;;;;4392598;28;659003;-68
2021/01/14 06:30:59;;;;;;;26.20;11.37;;;-1.00;99.90;;;;;;4412514;28;661405;-68
2021/01/14 06:33:45;;;;;;;30.60;12.07;;;-1.00;99.90;;;;;;4366758;28;660083;-68
2021/01/14 06:36:33;;;;;;;18.50;8.07;;;-1.00;99.90;;;;;;4404385;28;659771;-68
2021/01/14 06:39:21;;;;;;;25.73;11.20;;;-1.00;99.90;;;;;;4394830;28;659973;-69
2021/01/14 06:42:19;;;;;;;27.37;10.97;;;-1.00;99.90;;;;;;4407075;28;659750;-65
2021/01/14 06:45:07;;;;;;;24.60;11.23;;;-1.10;99.90;;;;;;4360536;28;661107;-68
2021/01/14 06:47:59;;;;;;;25.70;10.90;;;-1.10;99.90;;;;;;4393125;28;659938;-67
2021/01/14 06:50:49;;;;;;;29.53;11.43;;;-1.10;99.90;;;;;;4379383;28;660736;-69
2021/01/14 06:53:36;;;;;;;14.10;6.43;;;-1.00;99.90;;;;;;4393751;28;660364;-68
2021/01/14 06:56:24;;;;;;;24.73;10.30;;;-1.10;99.90;;;;;;4408269;28;658589;-68
2021/01/14 06:59:11;;;;;;;20.73;9.27;;;-1.00;99.90;;;;;;4387366;28;661140;-68
2021/01/14 07:02:32;;;;;;;33.47;11.77;;;-1.00;99.90;;;;;;4411228;28;659558;-65
2021/01/14 07:05:35;;;;;;;25.27;10.73;;;-1.10;99.90;;;;;;4370240;28;659780;-65
2021/01/14 07:08:31;;;;;;;26.73;10.97;;;-1.00;99.90;;;;;;4389435;28;660410;-68
2021/01/14 07:11:19;;;;;;;31.10;10.30;;;-1.10;99.90;;;;;;4374040;28;659727;-64
2021/01/14 07:14:13;;;;;;;26.70;10.50;;;-1.10;99.90;;;;;;4412304;28;661076;-68
2021/01/14 07:17:00;;;;;;;22.13;10.07;;;-0.90;99.90;;;;;;4359762;28;660591;-68
2021/01/14 07:19:47;;;;;;;21.40;9.13;;;-0.90;99.90;;;;;;4405771;28;660443;-69
2021/01/14 07:22:36;;;;;;;18.42;8.93;;;-0.90;99.90;;;;;;4393372;28;660288;-65
2021/01/14 07:25:22;;;;;;;22.07;9.43;;;-0.80;99.90;;;;;;4413061;28;658476;-69
2021/01/14 07:28:09;;;;;;;14.97;5.80;;;-0.80;99.90;;;;;;4387309;28;658745;-68
2021/01/14 07:30:57;;;;;;;15.27;6.80;;;-0.70;99.90;;;;;;4415228;28;660197;-69
2021/01/14 07:33:44;;;;;;;27.20;12.02;;;-0.70;99.90;;;;;;4383001;28;658560;-68
2021/01/14 07:36:33;;;;;;;24.50;10.10;;;-0.80;99.90;;;;;;4408185;28;659711;-68
2021/01/14 07:39:20;;;;;;;24.57;9.13;;;-0.90;99.90;;;;;;4392691;28;659769;-68
2021/01/14 07:42:07;;;;;;;7.00;3.17;;;-0.90;99.90;;;;;;4412827;28;660203;-69
2021/01/14 07:44:55;;;;;;;21.42;9.63;;;-0.80;99.90;;;;;;4388132;28;657184;-66
2021/01/14 07:47:43;;;;;;;22.97;9.93;;;-0.80;99.90;;;;;;4412732;28;659047;-68
2021/01/14 07:50:30;;;;;;;20.70;9.60;;;-0.90;99.90;;;;;;4389985;28;659617;-68
2021/01/14 07:53:17;;;;;;;18.73;9.10;;;-0.70;99.90;;;;;;4412907;28;658739;-68
2021/01/14 07:56:23;;;;;;;22.43;8.53;;;-0.80;99.90;;;;;;4393743;28;659015;-67
2021/01/14 07:59:10;;;;;;;8.93;3.07;;;-0.70;99.90;;;;;;4366246;28;661140;-68
2021/01/14 08:02:01;;;;;;;20.53;8.73;;;-0.60;99.90;;;;;;4408500;28;657790;-69
2021/01/14 08:04:52;;;;;;;15.03;6.40;;;-0.50;99.90;;;;;;4388307;28;658989;-65
2021/01/14 08:07:39;;;;;;;21.20;7.63;;;-0.40;99.90;;;;;;4382044;28;658566;-68
2021/01/14 08:10:26;;;;;;;19.87;7.13;;;-0.30;99.90;;;;;;4411379;28;659468;-68
2021/01/14 08:13:14;;;;;;;6.10;2.87;;;-0.30;99.90;;;;;;4406542;28;658873;-65
2021/01/14 08:16:01;;;;;;;21.53;8.63;;;-0.20;99.90;;;;;;4421309;28;658004;-68
2021/01/14 08:19:15;;;;;;;17.63;8.67;;;-0.10;99.90;;;;;;4405575;28;658826;-69
2021/01/14 08:22:07;;;;;;;15.07;7.03;;;-0.20;99.90;;;;;;4393210;28;659026;-69
2021/01/14 08:24:54;;;;;;;7.13;3.23;;;-0.10;99.90;;;;;;4375315;28;658712;-68
2021/01/14 08:27:43;;;;;;;13.17;6.93;;;0.00;99.90;;;;;;4417603;28;657955;-68
2021/01/14 08:30:30;;;;;;;15.23;6.67;;;0.10;99.90;;;;;;4398310;28;658652;-68
2021/01/14 08:33:17;;;;;;;17.20;7.87;;;0.10;99.90;;;;;;4417061;28;658324;-66
2021/01/14 08:36:05;;;;;;;13.07;6.67;;;0.10;99.90;;;;;;4391445;28;657571;-67
2021/01/14 08:38:53;;;;;;;17.43;7.43;;;0.10;99.90;;;;;;4411805;28;658665;-69
2021/01/14 08:41:40;;;;;;;8.10;1.63;;;0.00;99.90;;;;;;4382068;28;657500;-68
2021/01/14 08:44:29;;;;;;;9.40;4.90;;;0.20;99.90;;;;;;4404096;28;657800;-68
2021/01/14 08:47:16;;;;;;;12.97;7.00;;;0.10;99.90;;;;;;4394491;28;656547;-68
2021/01/14 08:50:05;;;;;;;13.50;6.93;;;0.10;99.90;;;;;;4402693;28;658084;-66
2021/01/14 08:52:52;;;;;;;11.73;5.30;;;0.10;99.90;;;;;;4409692;28;659407;-69
2021/01/14 08:55:40;;;;;;;9.60;4.97;;;-0.10;99.90;;;;;;4397427;28;657491;-66
2021/01/14 08:58:42;;;;;;;22.70;8.75;;;-0.10;99.90;;;;;;4416578;28;659434;-68
2021/01/14 09:01:30;;;;;;;15.93;8.40;;;-0.20;99.90;;;;;;4371981;28;658980;-65
2021/01/14 09:04:18;;;;;;;17.57;7.97;;;0.00;99.90;;;;;;4406854;28;658501;-69
2021/01/14 09:07:05;;;;;;;12.52;4.28;;;0.00;99.90;;;;;;4396297;28;658410;-68
2021/01/14 09:09:52;;;;;;;21.97;9.27;;;-0.10;99.90;;;;;;4409241;28;659476;-68
2021/01/14 09:12:41;;;;;;;21.30;9.83;;;-0.20;99.90;;;;;;4392039;28;658550;-68
2021/01/14 09:15:28;;;;;;;21.03;8.77;;;-0.30;99.90;;;;;;4403936;28;658688;-68
2021/01/14 09:18:15;;;;;;;18.88;8.52;;;-0.30;99.90;;;;;;4383849;28;658516;-68
2021/01/14 09:21:02;;;;;;;22.67;9.33;;;-0.40;99.90;;;;;;4412924;28;659875;-69
2021/01/14 09:23:49;;;;;;;20.43;9.43;;;-0.40;99.90;;;;;;4387446;28;658575;-68
2021/01/14 09:26:38;;;;;;;27.10;11.63;;;-0.40;99.90;;;;;;4414064;28;659714;-69
2021/01/14 09:29:30;;;;;;;21.53;9.03;;;-0.50;99.90;;;;;;4388959;28;660852;-68
2021/01/14 09:32:17;;;;;;;10.53;5.03;;;-0.50;99.90;;;;;;4387185;28;658760;-69
2021/01/14 09:35:13;;;;;;;25.27;9.97;;;-0.30;99.90;;;;;;4386884;28;658918;-67
2021/01/14 09:38:00;;;;;;;24.03;9.43;;;-0.30;99.90;;;;;;4365750;28;658629;-69
2021/01/14 09:40:53;;;;;;;18.80;7.27;;;-0.40;99.90;;;;;;4407973;28;659247;-68
2021/01/14 09:43:40;;;;;;;22.43;9.80;;;-0.30;99.90;;;;;;4369314;28;659556;-68
2021/01/14 09:46:29;;;;;;;19.27;7.50;;;-0.40;99.90;;;;;;4414348;28;659162;-68
2021/01/14 09:49:19;;;;;;;26.87;10.77;;;-0.30;99.90;;;;;;4390687;28;660029;-69
2021/01/14 09:52:06;;;;;;;23.08;9.77;;;-0.30;99.90;;;;;;4396454;28;661332;-68
2021/01/14 09:54:53;;;;;;;18.98;8.60;;;-0.20;99.90;;;;;;4406628;28;658458;-66
2021/01/14 09:57:43;;;;;;;23.25;9.23;;;-0.20;99.90;;;;;;4382630;28;659233;-68
2021/01/14 10:00:30;;;;;;;15.97;6.80;;;-0.10;99.90;;;;;;4390929;28;660617;-69
2021/01/14 10:03:20;;;;;;;20.50;8.80;;;-0.10;99.90;;;;;;4414372;28;659407;-68
2021/01/14 10:06:08;;;;;;;18.37;8.07;;;0.00;99.90;;;;;;4390615;28;660471;-68
2021/01/14 10:08:57;;;;;;;19.03;8.97;;;-0.10;99.90;;;;;;4392011;28;659682;-69
2021/01/14 10:11:44;;;;;;;21.50;9.43;;;-0.20;99.90;;;;;;4395414;28;659431;-67
2021/01/14 10:14:31;;;;;;;20.27;8.67;;;-0.10;99.90;;;;;;4413455;28;660414;-69
2021/01/14 10:17:18;;;;;;;22.67;9.37;;;-0.30;99.90;;;;;;4413741;28;658511;-69
2021/01/14 10:20:07;;;;;;;19.53;8.43;;;-0.20;99.90;;;;;;4390940;28;660910;-68
2021/01/14 10:22:55;;;;;;;17.97;7.27;;;-0.30;99.90;;;;;;4393920;28;659752;-67
2021/01/14 10:25:47;;;;;;;20.53;8.67;;;-0.10;99.90;;;;;;4408689;28;661022;-69
2021/01/14 10:28:43;;;;;;;22.67;10.17;;;-0.20;99.90;;;;;;4394302;28;658462;-68
2021/01/14 10:31:34;;;;;;;21.23;9.60;;;-0.40;99.90;;;;;;4357426;28;660898;-68
2021/01/14 10:34:23;;;;;;;21.73;9.27;;;-0.40;99.90;;;;;;4387395;28;659670;-67
2021/01/14 10:37:25;;;;;;;21.23;9.90;;;-0.40;99.90;;;;;;4390201;28;658393;-67
2021/01/14 10:40:18;;;;;;;21.00;9.10;;;-0.10;99.90;;;;;;4384148;28;659799;-69
2021/01/14 10:43:05;;;;;;;17.13;8.80;;;-0.10;99.90;;;;;;4402978;28;659245;-68
2021/01/14 10:45:52;;;;;;;15.10;6.40;;;0.00;99.90;;;;;;4396136;28;659319;-68
2021/01/14 10:48:39;;;;;;;23.17;10.48;;;0.00;99.90;;;;;;4385789;28;657646;-66
2021/01/14 10:51:32;;;;;;;19.92;9.13;;;0.20;99.90;;;;;;4410784;28;660507;-68
2021/01/14 10:54:21;;;;;;;15.93;7.40;;;0.30;99.90;;;;;;4366266;28;657406;-67
2021/01/14 10:57:09;;;;;;;23.43;9.70;;;0.50;99.90;;;;;;4403877;28;658844;-65
2021/01/14 10:59:57;;;;;;;15.27;6.00;;;0.50;99.90;;;;;;4405171;28;658715;-69
2021/01/14 11:02:45;;;;;;;27.90;10.60;;;0.60;99.90;;;;;;4395196;28;658492;-66
2021/01/14 11:05:45;;;;;;;22.92;10.00;;;0.50;99.90;;;;;;4412889;28;660035;-69
2021/01/14 11:08:39;;;;;;;21.87;9.37;;;0.60;99.90;;;;;;4389577;28;658604;-69
2021/01/14 11:11:27;;;;;;;22.87;10.93;;;0.50;99.90;;;;;;4368655;28;658146;-69
2021/01/14 11:14:15;;;;;;;17.60;8.53;;;0.50;99.90;;;;;;4393738;28;660351;-64
2021/01/14 11:17:02;;;;;;;17.13;8.73;;;0.60;99.90;;;;;;4407557;28;658053;-69
2021/01/14 11:19:49;;;;;;;22.33;10.07;;;0.50;99.90;;;;;;4393729;28;659189;-68
2021/01/14 11:22:36;;;;;;;22.87;10.37;;;0.40;99.90;;;;;;4410622;28;659223;-69
2021/01/14 11:25:24;;;;;;;8.90;4.23;;;0.60;99.90;;;;;;4407636;28;658601;-66
2021/01/14 11:28:12;;;;;;;20.88;9.00;;;0.80;99.90;;;;;;4415251;28;658566;-68
2021/01/14 11:30:59;;;;;;;29.67;11.80;;;1.00;99.90;;;;;;4390865;28;657398;-65
2021/01/14 11:33:46;;;;;;;26.38;11.63;;;1.00;99.90;;;;;;4415518;28;659139;-69
2021/01/14 11:36:33;;;;;;;30.00;12.13;;;1.00;99.90;;;;;;4414844;28;659492;-69
2021/01/14 11:39:20;;;;;;;24.45;11.48;;;0.70;99.90;;;;;;4397378;28;658315;-68
2021/01/14 11:42:07;;;;;;;22.80;11.82;;;0.60;99.90;;;;;;4416653;28;660424;-69
2021/01/14 11:44:55;;;;;;;29.50;13.63;;;0.50;99.90;;;;;;4396759;28;658731;-67
2021/01/14 11:47:42;;;;;;;28.27;13.20;;;0.50;99.90;;;;;;4415975;28;659375;-69
2021/01/14 11:50:29;;;;;;;25.27;11.50;;;0.60;99.90;;;;;;4389730;28;658586;-66
2021/01/14 11:53:16;;;;;;;30.50;13.87;;;0.60;99.90;;;;;;4419876;28;660200;-69
2021/01/14 11:56:03;;;;;;;23.20;10.03;;;0.80;99.90;;;;;;4415563;28;658202;-68
2021/01/14 11:58:50;;;;;;;27.03;11.30;;;1.00;99.90;;;;;;4393564;28;658930;-69
2021/01/14 12:01:38;;;;;;;34.93;13.67;;;1.00;99.90;;;;;;4412537;28;659979;-69
2021/01/14 12:04:24;;;;;;;27.73;13.10;;;1.10;99.90;;;;;;4392075;28;659570;-68
2021/01/14 12:07:11;;;;;;;32.27;12.87;;;0.90;99.90;;;;;;4415258;28;659551;-68
2021/01/14 12:09:59;;;;;;;19.10;5.82;;;0.90;99.90;;;;;;4396317;28;658554;-66
2021/01/14 12:12:46;;;;;;;26.40;11.57;;;1.10;99.90;;;;;;4413404;28;657537;-69
2021/01/14 12:15:33;;;;;;;29.73;12.97;;;1.00;99.90;;;;;;4406860;28;659172;-68
2021/01/14 12:18:21;;;;;;;28.43;11.73;;;1.00;99.90;;;;;;4390438;28;658566;-68
2021/01/14 12:21:09;;;;;;;14.88;7.28;;;0.90;99.90;;;;;;4400766;28;658474;-66
2021/01/14 12:23:56;;;;;;;37.00;15.02;;;1.10;99.90;;;;;;4413473;28;657481;-68
2021/01/14 12:26:43;;;;;;;21.63;8.63;;;1.20;99.90;;;;;;4410360;28;658951;-69
2021/01/14 12:29:30;;;;;;;18.67;7.90;;;1.30;99.90;;;;;;4393386;28;657619;-68
2021/01/14 12:32:16;;;;;;;26.97;12.00;;;1.30;99.90;;;;;;4400345;28;658692;-68
2021/01/14 12:35:06;;;;;;;34.08;12.40;;;1.40;99.90;;;;;;4395349;28;658472;-65
2021/01/14 12:37:53;;;;;;;21.27;9.10;;;1.70;99.90;;;;;;4412844;28;658447;-68
2021/01/14 12:40:40;;;;;;;21.57;9.97;;;3.40;99.90;;;;;;4385994;28;658456;-68
2021/01/14 12:43:27;;;;;;;15.93;7.43;;;4.30;99.90;;;;;;4416536;28;658195;-69
2021/01/14 12:46:14;;;;;;;10.07;4.57;;;4.00;99.90;;;;;;4393137;28;657633;-66
2021/01/14 12:49:01;;;;;;;23.67;9.90;;;3.50;99.90;;;;;;4415069;28;657582;-69
2021/01/14 12:51:49;;;;;;;24.15;8.95;;;3.00;99.90;;;;;;4416180;28;658184;-69
2021/01/14 12:54:35;;;;;;;30.47;11.27;;;2.70;99.90;;;;;;4388921;28;658261;-68
2021/01/14 12:57:22;;;;;;;41.03;13.13;;;2.20;99.90;;;;;;4412104;28;659185;-69
2021/01/14 13:00:11;;;;;;;29.37;7.93;;;1.70;99.90;;;;;;4391094;28;659258;-68
2021/01/14 13:02:58;;;;;;;23.27;8.40;;;1.60;99.90;;;;;;4411897;28;657903;-69
2021/01/14 13:05:45;;;;;;;24.47;9.70;;;1.30;99.90;;;;;;4389386;28;657465;-68
2021/01/14 13:08:33;;;;;;;17.75;7.22;;;1.00;99.90;;;;;;4413489;28;660166;-69
2021/01/14 13:11:20;;;;;;;18.53;6.53;;;0.70;99.90;;;;;;4390544;28;658198;-69
2021/01/14 13:14:07;;;;;;;12.10;5.77;;;0.60;99.90;;;;;;4411941;28;658007;-69
2021/01/14 13:16:54;;;;;;;13.02;5.53;;;0.60;99.90;;;;;;4402491;28;658157;-65
2021/01/14 13:19:41;;;;;;;15.90;6.07;;;0.80;99.90;;;;;;4417246;28;658139;-69
2021/01/14 13:22:29;;;;;;;12.67;5.93;;;0.90;99.90;;;;;;4406570;28;658311;-65
2021/01/14 13:25:18;;;;;;;19.23;7.77;;;1.00;99.90;;;;;;4415435;28;658712;-66
2021/01/14 13:28:05;;;;;;;14.43;6.20;;;1.00;99.90;;;;;;4392851;28;658430;-69
2021/01/14 13:30:52;;;;;;;16.47;6.90;;;0.90;99.90;;;;;;4414104;28;658643;-68
2021/01/14 13:33:39;;;;;;;17.10;7.23;;;0.90;99.90;;;;;;4387044;28;657484;-67
2021/01/14 13:36:28;;;;;;;17.43;6.30;;;1.00;99.90;;;;;;4414673;28;659259;-68
2021/01/14 13:39:15;;;;;;;20.63;7.80;;;1.10;99.90;;;;;;4401036;28;658995;-68
2021/01/14 13:42:05;;;;;;;21.13;8.20;;;0.90;99.90;;;;;;4411046;28;657841;-69
2021/01/14 13:44:54;;;;;;;21.70;9.20;;;1.00;99.90;;;;;;4382377;28;658251;-69
2021/01/14 13:47:41;;;;;;;15.87;7.53;;;0.90;99.90;;;;;;4383811;28;659269;-68
2021/01/14 13:50:28;;;;;;;22.20;8.27;;;0.90;99.90;;;;;;4409686;28;657885;-69
2021/01/14 13:53:15;;;;;;;20.45;7.95;;;1.10;99.90;;;;;;4387525;28;659253;-68
2021/01/14 13:56:02;;;;;;;17.13;6.57;;;1.20;99.90;;;;;;4409395;28;659376;-69
2021/01/14 13:58:50;;;;;;;23.60;9.40;;;1.20;99.90;;;;;;4388528;28;657423;-68
2021/01/14 14:01:37;;;;;;;21.75;8.32;;;1.10;99.90;;;;;;4398772;28;657864;-69
2021/01/14 14:04:24;;;;;;;25.50;9.47;;;1.10;99.90;;;;;;4390784;28;657488;-67
2021/01/14 14:07:11;;;;;;;20.33;8.33;;;1.00;99.90;;;;;;4410499;28;658510;-68
2021/01/14 14:09:59;;;;;;;24.30;10.50;;;0.80;99.90;;;;;;4401575;28;657822;-66
2021/01/14 14:12:45;;;;;;;27.97;10.87;;;0.60;99.90;;;;;;4407312;28;659618;-68
2021/01/14 14:15:33;;;;;;;28.17;10.33;;;0.60;99.90;;;;;;4405421;28;659125;-69